Time;durP1;ratioP1;P1;durP2;ratioP2;P2;SDS_P1;SDS_P2;PMS_P1;PMS_P2;Temp;Humidity;BMP_temperature;BMP_pressure;BME280_temperature;BME280_humidity;BME280_pressure;Samples;Min_cycle;Max_cycle;Signal;HPM_P1;HPM_P2
2024/01/07 00:00:58;;;;;;;27.97;15.50;;;7.50;99.90;;;7.47;66.87;93488.94;5016578;28;20568;-63
2024/01/07 00:03:25;;;;;;;29.80;14.70;;;7.50;99.90;;;7.47;67.50;93488.13;5017078;28;20450;-63
2024/01/07 00:05:53;;;;;;;30.53;15.90;;;7.50;99.90;;;7.47;66.92;93493.38;5013028;28;20473;-64
2024/01/07 00:08:21;;;;;;;26.13;14.10;;;7.50;99.90;;;7.47;67.17;93491.56;5022056;28;20838;-65
2024/01/07 00:10:49;;;;;;;28.43;14.60;;;7.50;99.90;;;7.47;67.63;93488.13;5008535;28;20644;-65
2024/01/07 00:13:17;;;;;;;23.30;13.23;;;7.50;99.90;;;7.47;67.38;93481.09;5009053;28;20445;-65
2024/01/07 00:15:44;;;;;;;29.33;14.47;;;7.50;99.90;;;7.47;67.37;93480.28;5010670;28;21010;-62
2024/01/07 00:18:12;;;;;;;20.10;13.13;;;7.50;99.90;;;7.45;67.25;93472.59;5010852;28;20549;-66
2024/01/07 00:20:39;;;;;;;24.70;14.47;;;7.50;99.90;;;7.42;67.14;93478.13;5006699;28;20473;-64
2024/01/07 00:23:07;;;;;;;24.63;13.70;;;7.50;99.90;;;7.40;66.86;93479.25;5009780;28;20457;-65
2024/01/07 00:25:34;;;;;;;20.90;13.07;;;7.50;99.90;;;7.39;67.45;93475.00;5010627;28;20482;-64
2024/01/07 00:28:03;;;;;;;26.83;14.57;;;7.50;99.90;;;7.36;66.70;93460.44;5010458;28;20993;-65
2024/01/07 00:30:30;;;;;;;27.57;13.90;;;7.40;99.90;;;7.33;66.99;93460.75;5010071;28;20481;-64
2024/01/07 00:32:57;;;;;;;18.40;12.57;;;7.40;99.90;;;7.32;66.82;93453.88;5010799;28;20443;-65
2024/01/07 00:35:24;;;;;;;20.67;13.03;;;7.40;99.90;;;7.30;67.02;93448.00;5010593;28;20519;-65
2024/01/07 00:37:52;;;;;;;24.07;12.07;;;7.40;99.90;;;7.29;67.04;93430.66;5008944;28;20450;-65
2024/01/07 00:40:19;;;;;;;19.17;12.07;;;7.30;99.90;;;7.26;67.63;93428.34;5010009;28;20497;-65
2024/01/07 00:42:46;;;;;;;20.37;10.93;;;7.30;99.90;;;7.25;67.38;93421.47;5010557;28;20457;-65
2024/01/07 00:45:15;;;;;;;21.70;12.13;;;7.30;99.90;;;7.24;68.02;93409.38;5010319;28;20466;-65
2024/01/07 00:47:43;;;;;;;19.50;11.23;;;7.30;99.90;;;7.25;67.78;93411.00;5010430;28;20457;-62
2024/01/07 00:50:10;;;;;;;16.83;11.40;;;7.30;99.90;;;7.27;68.29;93414.31;5010171;28;20539;-62
2024/01/07 00:52:38;;;;;;;19.23;11.10;;;7.30;99.90;;;7.30;67.95;93404.34;5009769;28;20450;-62
2024/01/07 00:55:07;;;;;;;15.77;11.30;;;7.30;99.90;;;7.33;67.84;93398.00;5009838;28;20485;-65
2024/01/07 00:57:34;;;;;;;21.63;11.53;;;7.40;99.90;;;7.34;68.01;93378.69;5010024;28;20548;-65
2024/01/07 01:00:02;;;;;;;20.93;10.33;;;7.40;99.90;;;7.39;68.04;93386.91;5009393;28;20490;-65
2024/01/07 01:02:31;;;;;;;24.43;12.67;;;7.40;99.90;;;7.42;68.19;93377.91;5009658;28;20509;-63
2024/01/07 01:04:58;;;;;;;23.67;12.53;;;7.50;99.90;;;7.43;68.58;93380.38;5009617;28;20593;-63
2024/01/07 01:07:26;;;;;;;17.23;10.53;;;7.50;99.90;;;7.45;68.35;93373.19;5009501;28;20535;-63
2024/01/07 01:09:53;;;;;;;20.00;10.90;;;7.50;99.90;;;7.47;68.25;93381.69;5005149;28;20474;-64
2024/01/07 01:12:20;;;;;;;21.50;11.93;;;7.50;99.90;;;7.49;68.42;93373.69;5006087;28;20450;-65
2024/01/07 01:14:48;;;;;;;26.60;13.00;;;7.50;99.90;;;7.52;67.71;93365.53;5009991;28;20535;-65
2024/01/07 01:17:15;;;;;;;19.67;12.27;;;7.50;99.90;;;7.54;67.68;93364.41;5012908;28;20453;-63
2024/01/07 01:19:44;;;;;;;21.47;10.73;;;7.60;99.90;;;7.56;67.83;93353.78;5008943;28;20521;-62
2024/01/07 01:22:11;;;;;;;23.00;11.30;;;7.60;99.90;;;7.56;67.67;93356.41;5009335;28;20524;-64
2024/01/07 01:24:39;;;;;;;18.93;10.60;;;7.60;99.90;;;7.56;67.65;93345.94;5009652;28;20789;-65
2024/01/07 01:27:07;;;;;;;21.63;11.83;;;7.60;99.90;;;7.57;68.25;93336.28;5008940;28;20465;-65
2024/01/07 01:29:34;;;;;;;16.83;10.83;;;7.60;99.90;;;7.58;67.84;93337.91;5005440;28;20862;-63
2024/01/07 01:32:01;;;;;;;17.90;10.77;;;7.60;99.90;;;7.59;67.72;93321.22;5001898;28;20538;-62
2024/01/07 01:34:28;;;;;;;21.17;10.60;;;7.60;99.90;;;7.59;67.56;93298.50;5008713;28;20503;-63
2024/01/07 01:36:56;;;;;;;23.00;10.00;;;7.60;99.90;;;7.62;68.01;93299.97;5009044;28;20485;-62
2024/01/07 01:39:24;;;;;;;18.43;11.37;;;7.70;99.90;;;7.62;68.14;93292.97;5009056;28;20485;-65
2024/01/07 01:41:51;;;;;;;23.60;11.07;;;7.70;99.90;;;7.64;67.83;93291.00;5008834;28;20453;-65
2024/01/07 01:44:19;;;;;;;16.27;11.43;;;7.70;99.90;;;7.66;67.83;93281.16;5009078;28;20454;-65
2024/01/07 01:46:46;;;;;;;21.97;11.77;;;7.70;99.90;;;7.68;68.21;93286.25;5008864;28;20544;-65
2024/01/07 01:49:14;;;;;;;22.63;11.40;;;7.70;99.90;;;7.70;68.00;93284.31;5008911;28;20457;-65
2024/01/07 01:51:41;;;;;;;16.00;11.70;;;7.70;99.90;;;7.69;68.13;93262.53;5008683;28;20827;-62
2024/01/07 01:54:10;;;;;;;24.13;12.40;;;7.80;99.90;;;7.71;67.79;93264.97;5008749;28;20454;-63
2024/01/07 01:56:37;;;;;;;16.20;11.00;;;7.70;99.90;;;7.70;68.80;93252.91;5008975;28;20492;-65
2024/01/07 01:59:04;;;;;;;18.83;11.40;;;7.70;99.90;;;7.70;68.74;93245.84;5008106;28;20497;-64
2024/01/07 02:01:32;;;;;;;20.20;12.50;;;7.70;99.90;;;7.71;68.49;93246.66;5008642;28;20484;-62
2024/01/07 02:03:59;;;;;;;16.53;9.90;;;7.80;99.90;;;7.72;68.20;93250.94;5008719;28;20458;-62
2024/01/07 02:06:27;;;;;;;22.53;11.50;;;7.70;99.90;;;7.70;68.40;93247.66;5008287;28;20481;-65
2024/01/07 02:08:54;;;;;;;17.47;11.57;;;7.70;99.90;;;7.72;68.41;93258.78;5007312;28;20457;-64
2024/01/07 02:11:23;;;;;;;19.43;11.50;;;7.80;99.90;;;7.74;68.82;93261.22;5003431;28;20477;-65
2024/01/07 02:13:50;;;;;;;28.63;10.70;;;7.80;99.90;;;7.75;69.03;93253.22;5008644;28;20450;-65
2024/01/07 02:16:18;;;;;;;15.87;10.70;;;7.70;99.90;;;7.75;69.14;93250.59;5005776;28;20473;-66
2024/01/07 02:18:46;;;;;;;16.83;10.40;;;7.80;99.90;;;7.76;69.42;93240.94;5008478;28;20886;-61
2024/01/07 02:21:14;;;;;;;22.13;10.10;;;7.80;99.90;;;7.76;69.08;93239.16;5011010;28;20500;-63
2024/01/07 02:23:42;;;;;;;13.47;10.43;;;7.80;99.90;;;7.75;68.86;93234.91;5013027;28;20456;-65
2024/01/07 02:26:11;;;;;;;23.27;10.60;;;7.80;99.90;;;7.78;69.01;93224.09;5012179;28;20480;-66
2024/01/07 02:28:38;;;;;;;16.03;10.83;;;7.80;99.90;;;7.80;68.40;93205.63;5012615;28;20481;-65
2024/01/07 02:31:05;;;;;;;16.20;10.37;;;7.80;99.90;;;7.81;68.95;93176.66;5011785;28;20473;-65
2024/01/07 02:33:33;;;;;;;14.50;10.30;;;7.80;99.90;;;7.83;68.71;93168.66;5009330;28;20449;-65
2024/01/07 02:36:01;;;;;;;14.17;10.23;;;7.80;99.90;;;7.83;69.15;93172.09;5012231;28;20486;-65
2024/01/07 02:38:28;;;;;;;17.90;10.77;;;7.80;99.90;;;7.82;68.98;93178.31;5012422;28;20805;-66
2024/01/07 02:40:55;;;;;;;15.77;9.80;;;7.90;99.90;;;7.84;69.27;93178.16;5012585;28;20492;-65
2024/01/07 02:43:24;;;;;;;17.73;10.47;;;7.90;99.90;;;7.85;68.58;93164.91;5012441;28;20959;-63
2024/01/07 02:45:51;;;;;;;19.10;10.93;;;7.90;99.90;;;7.86;68.83;93166.50;5012084;28;20465;-62
2024/01/07 02:48:19;;;;;;;18.07;11.07;;;7.90;99.90;;;7.86;69.04;93169.13;5012231;28;20457;-62
2024/01/07 02:50:46;;;;;;;17.40;10.43;;;7.90;99.90;;;7.86;69.38;93169.13;5012564;28;20521;-65
2024/01/07 02:53:13;;;;;;;18.80;11.53;;;7.90;99.90;;;7.86;68.80;93169.13;5012469;28;20446;-65
2024/01/07 02:55:41;;;;;;;28.73;11.20;;;7.90;99.90;;;7.86;69.11;93174.38;5011721;28;20472;-62
2024/01/07 02:58:08;;;;;;;17.70;10.33;;;7.90;99.90;;;7.87;69.04;93185.69;5011577;28;20445;-61
2024/01/07 03:00:37;;;;;;;15.60;10.77;;;7.90;99.90;;;7.89;69.31;93184.50;5012290;28;20497;-65
2024/01/07 03:03:05;;;;;;;16.57;11.57;;;7.90;99.90;;;7.90;69.22;93186.16;5008940;28;20450;-61
2024/01/07 03:05:33;;;;;;;19.00;11.13;;;7.90;99.90;;;7.90;69.60;93194.00;5006628;28;20558;-62
2024/01/07 03:08:01;;;;;;;15.17;10.60;;;7.90;99.90;;;7.93;69.85;93202.50;5012225;28;20465;-62
2024/01/07 03:10:28;;;;;;;14.67;9.53;;;7.90;99.90;;;7.92;69.65;93212.16;5012260;28;20477;-62
2024/01/07 03:12:55;;;;;;;19.63;10.73;;;7.90;99.90;;;7.93;70.02;93220.81;5012290;28;20457;-64
2024/01/07 03:15:23;;;;;;;14.90;9.93;;;7.90;99.90;;;7.94;70.69;93225.09;5015784;28;20484;-62
2024/01/07 03:17:52;;;;;;;13.77;9.67;;;7.90;99.90;;;7.99;70.22;93225.41;5020372;28;20457;-63
2024/01/07 03:20:19;;;;;;;15.80;9.53;;;8.00;99.90;;;8.03;70.52;93221.47;5011983;28;20500;-62
2024/01/07 03:22:47;;;;;;;15.83;9.50;;;8.00;99.90;;;8.10;70.66;93222.44;5011475;28;20508;-65
2024/01/07 03:25:14;;;;;;;17.80;8.80;;;8.10;99.90;;;8.16;71.08;93234.06;5010866;28;20482;-64
2024/01/07 03:27:41;;;;;;;14.40;8.00;;;8.10;99.90;;;8.22;70.52;93230.78;5011767;28;20449;-62
2024/01/07 03:30:09;;;;;;;14.93;9.07;;;8.20;99.90;;;8.28;71.02;93216.22;5007436;28;20469;-63
2024/01/07 03:32:37;;;;;;;20.70;8.97;;;8.30;99.90;;;8.34;70.95;93216.34;5010776;28;20540;-63
2024/01/07 03:35:08;;;;;;;13.83;9.20;;;8.30;99.90;;;8.42;71.48;93223.38;5011551;28;20565;-62
2024/01/07 03:37:36;;;;;;;18.50;8.90;;;8.40;99.90;;;8.48;71.75;93211.44;5012287;28;20445;-65
2024/01/07 03:40:03;;;;;;;13.17;8.47;;;8.50;99.90;;;8.53;72.04;93209.94;5005943;28;20496;-63
2024/01/07 03:42:31;;;;;;;15.20;9.43;;;8.50;99.90;;;8.56;72.09;93196.50;5011536;28;20974;-65
2024/01/07 03:44:58;;;;;;;15.50;8.50;;;8.60;99.90;;;8.65;71.65;93214.84;5011207;28;20473;-66
2024/01/07 03:47:26;;;;;;;12.03;8.77;;;8.60;99.90;;;8.72;71.79;93210.53;5011373;28;20655;-62
2024/01/07 03:49:53;;;;;;;14.23;8.47;;;8.70;99.90;;;8.75;71.53;93204.94;5011454;28;20505;-63
2024/01/07 03:52:22;;;;;;;10.97;7.03;;;8.70;99.90;;;8.80;71.48;93205.28;5011394;28;20532;-62
2024/01/07 03:54:49;;;;;;;6.67;3.23;;;8.80;99.90;;;8.84;71.16;93193.44;5011290;28;20493;-63
2024/01/07 03:57:16;;;;;;;6.63;3.60;;;8.80;99.90;;;8.90;71.26;93184.09;5011129;28;20834;-62
2024/01/07 03:59:44;;;;;;;7.10;3.23;;;8.90;99.90;;;8.94;71.81;93193.25;5007800;28;20478;-65
2024/01/07 04:02:11;;;;;;;3.73;2.73;;;8.90;99.90;;;9.00;71.65;93186.50;5007948;28;20446;-66
2024/01/07 04:04:39;;;;;;;4.50;3.20;;;9.00;99.90;;;9.07;71.61;93187.44;5011707;28;20450;-62
2024/01/07 04:07:06;;;;;;;6.73;3.33;;;9.00;99.90;;;9.11;71.31;93183.50;5011061;28;20493;-65
2024/01/07 04:09:35;;;;;;;4.63;3.50;;;9.00;99.90;;;9.16;71.01;93191.66;5011226;28;20453;-65
2024/01/07 04:12:02;;;;;;;6.87;2.57;;;9.10;99.90;;;9.21;70.82;93183.28;5011119;28;20465;-65
2024/01/07 04:14:33;;;;;;;3.33;2.80;;;9.10;99.90;;;9.25;71.41;93185.38;5010755;28;20450;-64
2024/01/07 04:17:00;;;;;;;3.53;2.60;;;9.20;99.90;;;9.24;71.21;93162.75;5010746;28;20454;-66
2024/01/07 04:19:28;;;;;;;8.63;2.77;;;9.20;99.90;;;9.31;71.03;93174.19;5009975;28;20449;-62
2024/01/07 04:21:55;;;;;;;2.47;2.37;;;9.30;99.90;;;9.33;71.04;93166.94;5007249;28;20450;-64
2024/01/07 04:24:22;;;;;;;4.80;3.40;;;9.30;99.90;;;9.36;71.29;93157.09;5010501;28;20468;-66
2024/01/07 04:26:51;;;;;;;5.00;2.90;;;9.30;99.90;;;9.38;71.45;93153.31;5010331;28;20473;-63
2024/01/07 04:29:18;;;;;;;4.50;3.30;;;9.30;99.90;;;9.39;71.67;93143.63;5010401;28;20457;-65
2024/01/07 04:31:46;;;;;;;4.20;3.40;;;9.30;99.90;;;9.38;70.88;93127.06;5008624;28;20462;-64
2024/01/07 04:34:13;;;;;;;3.90;3.10;;;9.30;99.90;;;9.34;71.08;93115.28;5009682;28;20465;-62
2024/01/07 04:36:41;;;;;;;4.20;3.80;;;9.30;99.90;;;9.31;71.06;93128.75;5009698;28;20863;-61
2024/01/07 04:39:09;;;;;;;8.20;3.20;;;9.30;99.90;;;9.28;70.96;93143.06;5009132;28;20465;-61
2024/01/07 04:41:37;;;;;;;4.93;3.50;;;9.30;99.90;;;9.25;71.01;93143.41;5010358;28;20527;-65
2024/01/07 04:44:06;;;;;;;7.50;3.77;;;9.30;99.90;;;9.21;70.85;93134.25;5009098;28;20473;-65
2024/01/07 04:46:35;;;;;;;4.83;3.70;;;9.20;99.90;;;9.19;71.43;93133.59;5009871;28;20477;-64
2024/01/07 04:49:03;;;;;;;7.43;3.87;;;9.20;99.90;;;9.20;71.75;93137.03;5009411;28;20548;-66
2024/01/07 04:51:30;;;;;;;4.23;3.90;;;9.10;99.90;;;9.17;71.72;93137.38;5009455;28;20492;-62
2024/01/07 04:53:58;;;;;;;5.43;4.57;;;9.10;99.90;;;9.15;71.54;93140.19;5010000;28;20493;-63
2024/01/07 04:56:25;;;;;;;4.63;4.13;;;9.10;99.90;;;9.15;71.60;93142.81;5010188;28;20512;-65
2024/01/07 04:58:53;;;;;;;5.47;4.57;;;9.10;99.90;;;9.16;71.33;93144.44;5008322;28;20454;-60
2024/01/07 05:01:22;;;;;;;7.83;5.57;;;9.10;99.90;;;9.15;71.40;93146.25;5006131;28;20584;-65
2024/01/07 05:03:49;;;;;;;14.67;6.37;;;9.10;99.90;;;9.16;71.44;93152.31;5009475;28;20492;-65
2024/01/07 05:06:17;;;;;;;18.60;7.17;;;9.10;99.90;;;9.16;71.36;93157.56;5009390;28;20477;-64
2024/01/07 05:08:44;;;;;;;8.90;5.90;;;9.10;99.90;;;9.13;71.47;93157.91;5009937;28;20465;-63
2024/01/07 05:11:12;;;;;;;11.27;6.20;;;9.10;99.90;;;9.13;71.34;93150.03;5009153;28;20474;-65
2024/01/07 05:13:39;;;;;;;8.97;6.00;;;9.10;99.90;;;9.11;71.36;93142.34;5009542;28;20454;-65
2024/01/07 05:16:07;;;;;;;15.93;7.27;;;9.10;99.90;;;9.11;71.57;93131.06;5009471;28;20474;-63
2024/01/07 05:18:36;;;;;;;14.37;7.20;;;9.10;99.90;;;9.09;71.71;93122.53;5010024;28;20529;-65
2024/01/07 05:21:04;;;;;;;18.03;8.13;;;9.10;99.90;;;9.06;71.61;93128.94;5009005;28;20493;-64
2024/01/07 05:23:31;;;;;;;12.83;7.17;;;9.00;99.90;;;9.03;71.53;93129.28;5011057;28;20466;-65
2024/01/07 05:26:00;;;;;;;16.27;8.20;;;9.00;99.90;;;9.01;71.71;93128.63;5011287;28;20962;-65
2024/01/07 05:28:28;;;;;;;10.30;7.27;;;9.00;99.90;;;9.01;71.45;93125.19;5007914;28;20461;-65
2024/01/07 05:30:55;;;;;;;15.40;8.97;;;9.00;99.90;;;9.00;71.54;93123.56;5008620;28;20458;-62
2024/01/07 05:33:23;;;;;;;11.00;7.63;;;9.00;99.90;;;8.96;71.63;93120.47;5008571;28;21008;-63
2024/01/07 05:35:52;;;;;;;17.57;7.10;;;8.90;99.90;;;8.94;71.58;93130.34;5009081;28;20557;-62
2024/01/07 05:38:19;;;;;;;12.97;7.93;;;8.90;99.90;;;8.92;71.92;93135.75;5009576;28;20460;-63
2024/01/07 05:40:47;;;;;;;6.67;5.40;;;8.90;99.90;;;8.90;71.94;93129.03;5009419;28;20493;-65
2024/01/07 05:43:14;;;;;;;6.50;4.40;;;8.90;99.90;;;8.88;71.64;93126.59;5009510;28;20541;-62
2024/01/07 05:45:42;;;;;;;7.53;5.13;;;8.90;99.90;;;8.87;71.58;93132.00;5009220;28;20893;-62
2024/01/07 05:48:09;;;;;;;7.20;4.77;;;8.90;99.90;;;8.87;71.54;93113.66;5009331;28;20790;-65
2024/01/07 05:50:36;;;;;;;6.53;4.90;;;8.90;99.90;;;8.87;71.78;93114.47;5009294;28;21143;-65
2024/01/07 05:53:05;;;;;;;6.07;4.57;;;8.80;99.90;;;8.87;71.57;93109.22;5013272;28;20461;-62
2024/01/07 05:55:33;;;;;;;5.83;4.30;;;8.90;99.90;;;8.87;71.68;93122.31;5017479;28;20535;-65
2024/01/07 05:58:00;;;;;;;11.67;4.07;;;8.80;99.90;;;8.85;71.66;93116.44;5016268;28;20963;-62
2024/01/07 06:00:28;;;;;;;5.60;4.53;;;8.80;99.90;;;8.87;71.87;93116.28;5015160;28;20496;-64
2024/01/07 06:02:55;;;;;;;6.77;4.80;;;8.80;99.90;;;8.85;71.52;93115.63;5009399;28;20458;-63
2024/01/07 06:05:23;;;;;;;7.40;4.70;;;8.90;99.90;;;8.85;71.79;93110.41;5006465;28;20470;-63
2024/01/07 06:07:50;;;;;;;7.93;4.60;;;8.80;99.90;;;8.85;71.84;93111.19;5007278;28;20525;-63
2024/01/07 06:10:19;;;;;;;9.13;4.53;;;8.90;99.90;;;8.87;71.69;93103.16;5007208;28;20486;-62
2024/01/07 06:12:46;;;;;;;6.13;4.10;;;8.90;99.90;;;8.84;71.85;93096.44;5009508;28;20460;-62
2024/01/07 06:15:14;;;;;;;13.00;4.67;;;8.90;99.90;;;8.88;71.79;93099.56;5009117;28;20469;-63
2024/01/07 06:17:41;;;;;;;5.67;4.33;;;8.80;99.90;;;8.89;71.68;93101.19;5008855;28;20485;-67
2024/01/07 06:20:09;;;;;;;7.00;4.50;;;8.80;99.90;;;8.90;71.38;93101.00;5009084;28;20549;-63
2024/01/07 06:22:37;;;;;;;6.53;5.00;;;8.90;99.90;;;8.90;71.62;93127.22;5008961;28;21008;-65
2024/01/07 06:25:06;;;;;;;7.93;4.23;;;8.90;99.90;;;8.88;71.59;93113.47;5008531;28;20472;-62
2024/01/07 06:27:34;;;;;;;7.17;4.30;;;8.90;99.90;;;8.86;71.30;93110.22;5009445;28;20489;-62
2024/01/07 06:30:04;;;;;;;7.40;5.67;;;8.80;99.90;;;8.85;71.40;93111.19;5009400;28;20989;-66
2024/01/07 06:32:32;;;;;;;10.07;5.10;;;8.80;99.90;;;8.82;71.59;93111.53;5003341;28;20519;-62
2024/01/07 06:34:59;;;;;;;8.67;5.60;;;8.80;99.90;;;8.81;71.55;93120.38;5007960;28;20505;-66
2024/01/07 06:37:29;;;;;;;10.27;6.43;;;8.80;99.90;;;8.78;71.95;93118.13;5008695;28;20461;-66
2024/01/07 06:39:58;;;;;;;12.73;7.23;;;8.80;99.90;;;8.74;71.98;93135.19;5009553;28;20474;-66
2024/01/07 06:42:26;;;;;;;15.70;8.27;;;8.80;99.90;;;8.66;72.25;93132.59;5009156;28;20536;-64
2024/01/07 06:44:55;;;;;;;14.17;8.47;;;8.70;99.90;;;8.57;72.62;93140.50;5008553;28;20473;-66
2024/01/07 06:47:22;;;;;;;273.20;143.23;;;8.60;99.90;;;8.52;72.48;93136.75;5008700;28;20450;-64
2024/01/07 06:49:50;;;;;;;36.67;20.33;;;8.60;99.90;;;8.48;72.72;93140.72;5009317;28;20578;-66
2024/01/07 06:52:19;;;;;;;20.57;10.80;;;8.50;99.90;;;8.46;72.91;93146.13;5009892;28;20466;-66
2024/01/07 06:54:46;;;;;;;20.50;10.97;;;8.50;99.90;;;8.43;73.50;93138.56;5009444;28;20501;-65
2024/01/07 06:57:14;;;;;;;14.77;9.87;;;8.50;99.90;;;8.42;73.44;93144.78;5002291;28;20449;-66
2024/01/07 06:59:41;;;;;;;18.33;11.17;;;8.40;99.90;;;8.42;73.58;93153.44;5008961;28;20807;-66
2024/01/07 07:02:10;;;;;;;16.97;10.40;;;8.40;99.90;;;8.44;73.23;93145.44;5007670;28;21192;-66
2024/01/07 07:04:39;;;;;;;11.10;8.83;;;8.40;99.90;;;8.48;73.47;93141.50;5007121;28;20529;-63
2024/01/07 07:07:07;;;;;;;17.10;9.60;;;8.50;99.90;;;8.53;73.23;93149.66;5007161;28;20453;-65
2024/01/07 07:09:35;;;;;;;18.83;9.60;;;8.50;99.90;;;8.58;73.61;93151.78;5012148;28;20833;-65
2024/01/07 07:12:02;;;;;;;20.97;9.93;;;8.60;99.90;;;8.60;73.70;93150.63;5012164;28;20453;-65
2024/01/07 07:14:30;;;;;;;10.90;8.97;;;8.60;99.90;;;8.65;73.31;93152.75;5012084;28;20537;-65
2024/01/07 07:16:59;;;;;;;24.53;9.37;;;8.60;99.90;;;8.67;73.10;93152.56;5012383;28;20457;-65
2024/01/07 07:19:27;;;;;;;34.77;16.70;;;8.70;99.90;;;8.69;73.52;93151.44;5012331;28;20464;-63
2024/01/07 07:21:55;;;;;;;28.67;11.87;;;8.70;99.90;;;8.71;73.63;93141.59;5010058;28;20501;-62
2024/01/07 07:24:22;;;;;;;82.43;31.73;;;8.70;99.90;;;8.70;73.19;93139.13;5011882;28;20880;-65
2024/01/07 07:26:50;;;;;;;17.93;10.20;;;8.70;99.90;;;8.70;73.46;93147.00;5011746;28;20474;-65
2024/01/07 07:29:17;;;;;;;9.60;7.40;;;8.70;99.90;;;8.74;73.51;93145.66;5012098;28;20449;-63
2024/01/07 07:31:44;;;;;;;15.00;8.10;;;8.70;99.90;;;8.79;73.28;93151.22;5003397;28;21048;-62
2024/01/07 07:34:12;;;;;;;18.50;12.77;;;8.80;99.90;;;8.84;73.24;93148.06;5011542;28;20544;-62
2024/01/07 07:36:43;;;;;;;10.57;8.73;;;8.80;99.90;;;8.93;73.30;93154.91;5008304;28;20971;-68
2024/01/07 07:39:10;;;;;;;15.13;11.43;;;8.90;99.90;;;9.04;72.64;93146.63;5012511;28;20472;-67
2024/01/07 07:41:38;;;;;;;12.57;8.20;;;9.00;99.90;;;9.13;73.37;93150.03;5013442;28;20497;-68
2024/01/07 07:44:05;;;;;;;16.23;9.70;;;9.10;99.90;;;9.28;72.68;93144.84;5014068;28;20493;-64
2024/01/07 07:46:33;;;;;;;14.40;10.03;;;9.20;99.90;;;9.45;72.28;93148.16;5020122;28;20472;-68
2024/01/07 07:49:01;;;;;;;12.50;9.00;;;9.40;99.90;;;9.66;72.45;93145.69;5012360;28;20450;-65
2024/01/07 07:51:29;;;;;;;20.53;8.70;;;9.60;99.90;;;10.02;72.08;93138.97;5011393;28;21001;-61
2024/01/07 07:53:58;;;;;;;16.40;9.97;;;9.90;99.90;;;10.49;70.90;93139.69;5009425;28;20473;-62
2024/01/07 07:56:26;;;;;;;11.67;8.10;;;10.30;99.90;;;10.97;69.74;93136.59;5011423;28;20942;-64
2024/01/07 07:58:54;;;;;;;15.03;8.90;;;10.70;99.90;;;11.39;68.80;93125.31;5011948;28;20592;-66
2024/01/07 08:01:21;;;;;;;12.30;8.67;;;11.10;99.90;;;11.74;67.42;93127.25;5011940;28;20497;-64
2024/01/07 08:03:49;;;;;;;14.20;8.70;;;11.50;99.90;;;12.07;66.85;93127.53;5010223;28;20467;-66
2024/01/07 08:06:16;;;;;;;13.80;10.43;;;11.80;99.90;;;12.30;65.85;93118.56;5010286;28;20461;-61
2024/01/07 08:08:45;;;;;;;18.27;10.20;;;12.00;99.90;;;12.40;65.46;93119.03;5010899;28;20449;-69
2024/01/07 08:11:14;;;;;;;13.80;9.03;;;12.20;99.90;;;12.42;65.26;93119.63;5009825;28;20492;-70
2024/01/07 08:13:42;;;;;;;13.07;9.07;;;12.20;99.90;;;12.40;64.81;93126.13;5011723;28;20549;-68
2024/01/07 08:16:10;;;;;;;16.20;9.00;;;12.30;99.90;;;12.33;65.23;93121.63;5009741;28;20469;-62
2024/01/07 08:18:38;;;;;;;13.03;8.80;;;12.30;99.90;;;12.22;64.94;93119.53;5010517;28;20457;-62
2024/01/07 08:21:06;;;;;;;10.20;8.00;;;12.20;99.90;;;12.10;65.47;93132.44;5010848;28;21201;-64
2024/01/07 08:23:33;;;;;;;30.43;10.87;;;12.10;99.90;;;11.98;65.32;93118.16;5010576;28;20449;-62
2024/01/07 08:26:02;;;;;;;12.40;9.00;;;11.90;99.90;;;11.86;65.12;93124.91;5009900;28;20472;-73
2024/01/07 08:28:31;;;;;;;21.13;13.77;;;11.80;99.90;;;11.69;65.20;93124.38;5011117;28;20557;-64
2024/01/07 08:30:58;;;;;;;28.60;15.60;;;11.70;99.90;;;11.56;65.63;93118.00;5010961;28;20478;-67
2024/01/07 08:33:26;;;;;;;19.53;12.80;;;11.60;99.90;;;11.49;66.21;93122.38;5008910;28;20464;-63
2024/01/07 08:35:53;;;;;;;20.37;14.20;;;11.50;99.90;;;11.47;66.15;93112.03;5010516;28;20484;-65
2024/01/07 08:38:21;;;;;;;24.30;15.20;;;11.40;99.90;;;11.45;66.42;93113.25;5010205;28;20446;-66
2024/01/07 08:40:49;;;;;;;21.57;14.97;;;11.40;99.90;;;11.41;66.46;93120.69;5010722;28;20523;-66
2024/01/07 08:43:17;;;;;;;32.13;18.30;;;11.40;99.90;;;11.41;66.45;93118.03;5009869;28;20446;-66
2024/01/07 08:45:45;;;;;;;26.60;12.77;;;11.40;99.90;;;11.43;66.57;93115.22;5006547;28;20588;-62
2024/01/07 08:48:13;;;;;;;12.77;9.17;;;11.40;99.90;;;11.40;66.09;93129.59;5010089;28;20465;-63
2024/01/07 08:50:40;;;;;;;12.97;9.30;;;11.30;99.90;;;11.32;66.12;93127.06;5006245;28;20477;-62
2024/01/07 08:53:08;;;;;;;11.93;8.23;;;11.30;99.90;;;11.24;66.63;93116.66;5010255;28;20511;-63
2024/01/07 08:55:35;;;;;;;13.20;9.77;;;11.20;99.90;;;11.23;66.60;93112.41;5010193;28;20513;-62
2024/01/07 08:58:03;;;;;;;18.83;11.60;;;11.10;99.90;;;11.23;66.61;93118.50;5010440;28;20818;-63
2024/01/07 09:00:31;;;;;;;23.63;10.73;;;11.10;99.90;;;11.24;66.87;93111.41;5010367;28;20581;-63
2024/01/07 09:03:00;;;;;;;16.97;11.80;;;11.20;99.90;;;11.28;66.80;93117.94;5009617;28;20489;-62
2024/01/07 09:05:28;;;;;;;21.10;9.87;;;11.20;99.90;;;11.37;67.31;93108.91;5010172;28;21292;-63
2024/01/07 09:07:55;;;;;;;15.33;10.97;;;11.30;99.90;;;11.47;66.88;93114.66;5010160;28;20450;-62
2024/01/07 09:10:24;;;;;;;15.93;11.67;;;11.40;99.90;;;11.64;66.89;93117.03;5010198;28;20469;-62
2024/01/07 09:12:53;;;;;;;13.20;9.33;;;11.50;99.90;;;11.82;66.48;93112.13;5010083;28;20480;-63
2024/01/07 09:15:21;;;;;;;16.70;11.40;;;11.60;99.90;;;11.98;66.11;93108.41;5010388;28;20473;-61
2024/01/07 09:17:49;;;;;;;17.87;12.57;;;11.80;99.90;;;12.15;65.88;93119.47;5010981;28;20457;-61
2024/01/07 09:20:18;;;;;;;16.70;12.30;;;12.00;99.90;;;12.35;65.77;93121.44;5012973;28;20469;-65
2024/01/07 09:22:46;;;;;;;19.60;11.73;;;12.20;99.90;;;12.55;65.18;93129.47;5013114;28;20493;-65
2024/01/07 09:25:13;;;;;;;15.47;11.87;;;12.30;99.90;;;12.77;64.49;93130.16;5010894;28;20465;-65
2024/01/07 09:27:41;;;;;;;17.73;10.97;;;12.50;99.90;;;13.00;64.52;93115.88;5007413;28;20829;-66
2024/01/07 09:30:14;;;;;;;19.00;12.17;;;12.80;99.90;;;13.27;63.45;93119.38;5007536;28;20481;-65
2024/01/07 09:32:42;;;;;;;22.33;13.47;;;13.00;99.90;;;13.52;63.55;93113.56;5005625;28;20446;-65
2024/01/07 09:35:09;;;;;;;22.97;13.80;;;13.20;99.90;;;13.79;62.86;93115.22;5007746;28;20492;-62
2024/01/07 09:37:38;;;;;;;25.33;12.40;;;13.50;99.90;;;14.18;62.63;93107.47;5006026;28;20512;-63
2024/01/07 09:40:07;;;;;;;15.50;10.77;;;13.80;99.90;;;14.68;61.59;93107.78;5010177;28;20482;-63
2024/01/07 09:42:34;;;;;;;15.67;10.00;;;14.30;99.90;;;15.18;60.40;93103.72;5006177;28;20493;-66
2024/01/07 09:45:03;;;;;;;14.00;9.97;;;14.80;99.90;;;15.67;59.44;93104.84;5004192;28;20465;-62
2024/01/07 09:47:31;;;;;;;7.30;6.33;;;15.30;99.90;;;15.98;57.47;93105.88;5002721;28;20939;-63
2024/01/07 09:49:58;;;;;;;10.53;5.00;;;15.60;98.60;;;16.11;57.23;93100.47;5007207;28;20476;-65
2024/01/07 09:52:25;;;;;;;25.83;12.23;;;15.80;97.80;;;16.35;57.52;93097.19;5008892;28;20454;-65
2024/01/07 09:55:03;;;;;;;6.13;5.23;;;15.90;98.00;;;16.63;56.30;93107.31;5009346;28;20473;-65
2024/01/07 09:57:31;;;;;;;12.47;7.43;;;16.30;96.90;;;17.11;54.93;93108.44;5007144;28;20446;-63
2024/01/07 09:59:58;;;;;;;7.13;5.53;;;16.70;95.90;;;17.84;54.27;93114.59;5009690;28;20473;-64
2024/01/07 10:02:25;;;;;;;11.87;4.43;;;17.30;95.90;;;18.79;51.55;93094.19;5007814;28;20508;-66
2024/01/07 10:04:52;;;;;;;8.40;4.33;;;18.10;93.40;;;19.80;50.33;93098.28;5008816;28;20476;-65
2024/01/07 10:07:20;;;;;;;6.10;3.20;;;19.10;92.30;;;20.83;48.32;93095.34;5006020;28;20457;-65
2024/01/07 10:09:48;;;;;;;14.53;1.33;;;20.00;90.60;;;21.62;45.07;93090.69;5009765;28;20489;-65
2024/01/07 10:12:17;;;;;;;3.63;1.57;;;20.70;81.40;;;21.95;43.26;93080.84;5006913;28;20462;-65
2024/01/07 10:14:44;;;;;;;12.20;2.60;;;21.20;76.80;;;22.42;41.73;93084.72;5007077;28;20446;-65
2024/01/07 10:17:18;;;;;;;4.43;1.30;;;21.70;72.10;;;22.67;37.64;93081.41;5009021;28;20465;-62
2024/01/07 10:19:47;;;;;;;3.97;0.80;;;22.00;64.40;;;22.88;38.31;93069.75;5009316;28;20487;-64
2024/01/07 10:22:15;;;;;;;3.83;1.07;;;22.20;64.00;;;23.17;38.24;93063.19;5009509;28;20496;-63